| time (UTC) | temp C | wind direction | speed KPH | gust KPH | rain 1hr cm | rain 24hr cm | rain mn cm | humidity % | barometer mb |
| 20260505034903 | 16 | 29 | 1.6 | 8.0 | 0.00 | 0.00 | 0.00 | 62 | 1010.2 |
| 20260505034203 | 17 | 77 | 0.0 | 9.7 | 0.00 | 0.00 | 0.00 | 60 | 1010.1 |
| 20260505033503 | 16 | 40 | 1.6 | 9.7 | 0.00 | 0.00 | 0.00 | 62 | 1010.2 |
| 20260505032803 | 17 | 31 | 0.0 | 11.3 | 0.00 | 0.00 | 0.00 | 62 | 1010.3 |
| 20260505032103 | 17 | 97 | 1.6 | 9.7 | 0.00 | 0.00 | 0.00 | 61 | 1010.2 |
| 20260505031403 | 17 | 76 | 1.6 | 9.7 | 0.00 | 0.00 | 0.00 | 60 | 1010.3 |
| 20260505030703 | 17 | 17 | 1.6 | 6.4 | 0.00 | 0.00 | 0.00 | 61 | 1010.4 |
| 20260505030003 | 17 | 68 | 1.6 | 6.4 | 0.00 | 0.00 | 0.00 | 60 | 1010.3 |
| 20260505025603 | 17 | 53 | 1.6 | 4.8 | 0.00 | 0.00 | 0.00 | 61 | 1010.4 |
| 20260505025117 | 17 | 5 | 1.6 | 4.8 | 0.00 | 0.00 | 0.00 | 61 | 1010.5 |
| 20260505024203 | 17 | 29 | 3.2 | 4.8 | 0.00 | 0.00 | 0.00 | 60 | 1010.5 |
| 20260505023503 | 17 | 61 | 1.6 | 4.8 | 0.00 | 0.00 | 0.00 | 59 | 1010.4 |
| 20260505023019 | 17 | 34 | 0.0 | 3.2 | 0.00 | 0.00 | 0.00 | 59 | 1010.4 |
| 20260505022103 | 17 | 28 | 1.6 | 3.2 | 0.00 | 0.00 | 0.00 | 58 | 1010.3 |
| 20260505021403 | 18 | 48 | 3.2 | 3.2 | 0.00 | 0.00 | 0.00 | 57 | 1010.2 |
| 20260505020703 | 18 | 67 | 0.0 | 4.8 | 0.00 | 0.00 | 0.00 | 57 | 1010.1 |
| 20260505020003 | 18 | 49 | 1.6 | 3.2 | 0.00 | 0.00 | 0.00 | 58 | 1010.2 |
| 20260505015603 | 18 | 81 | 0.0 | 4.8 | 0.00 | 0.00 | 0.00 | 57 | 1010.1 |
| 20260505014903 | 18 | 74 | 1.6 | 4.8 | 0.00 | 0.00 | 0.00 | 57 | 1010.0 |
| 20260505014419 | 18 | 90 | 0.0 | 3.2 | 0.00 | 0.00 | 0.00 | 56 | 1010.0 |
| 20260505013504 | 18 | 116 | 1.6 | 1.6 | 0.00 | 0.00 | 0.00 | 57 | 1010.0 |
| 20260505012804 | 18 | 117 | 0.0 | 1.6 | 0.00 | 0.00 | 0.00 | 56 | 1009.8 |
| 20260505012319 | 18 | 115 | 0.0 | 3.2 | 0.00 | 0.00 | 0.00 | 55 | 1009.8 |
| 20260505011404 | 19 | 106 | 0.0 | 3.2 | 0.00 | 0.00 | 0.00 | 54 | 1009.6 |
| 20260505010703 | 20 | 107 | 1.6 | 1.6 | 0.00 | 0.00 | 0.00 | 53 | 1009.5 |
| 20260505010004 | 20 | 244 | 1.6 | 4.8 | 0.00 | 0.00 | 0.00 | 52 | 1009.4 |
| 20260505005604 | 20 | 205 | 1.6 | 4.8 | 0.00 | 0.00 | 0.00 | 52 | 1009.4 |
| 20260505004903 | 20 | 108 | 0.0 | 4.8 | 0.00 | 0.00 | 0.00 | 52 | 1009.2 |
| 20260505004418 | 20 | 106 | 1.6 | 3.2 | 0.00 | 0.00 | 0.00 | 51 | 1009.1 |
| 20260505003503 | 20 | 188 | 3.2 | 6.4 | 0.00 | 0.00 | 0.00 | 49 | 1009.0 |
| 20260505002803 | 21 | 253 | 1.6 | 6.4 | 0.00 | 0.00 | 0.00 | 48 | 1009.0 |
| 20260505002103 | 21 | 254 | 0.0 | 6.4 | 0.00 | 0.00 | 0.00 | 47 | 1008.9 |
| 20260505001403 | 21 | 250 | 1.6 | 4.8 | 0.00 | 0.00 | 0.00 | 47 | 1008.8 |
| 20260505000703 | 21 | 252 | 1.6 | 8.0 | 0.00 | 0.00 | 0.00 | 46 | 1008.7 |
| 20260505000004 | 22 | 249 | 0.0 | 8.0 | 0.00 | 0.00 | 0.00 | 46 | 1008.6 |
| 20260504235817 | 22 | 237 | 0.0 | 4.8 | 0.00 | 0.00 | 0.00 | 46 | 1008.6 |
| 20260504234903 | 22 | 257 | 0.0 | 8.0 | 0.00 | 0.00 | 0.00 | 46 | 1008.6 |
| 20260504234203 | 22 | 262 | 3.2 | 9.7 | 0.00 | 0.00 | 0.00 | 45 | 1008.5 |
| 20260504233503 | 22 | 248 | 3.2 | 8.0 | 0.00 | 0.00 | 0.00 | 44 | 1008.4 |
| 20260504232803 | 22 | 259 | 3.2 | 16.1 | 0.00 | 0.00 | 0.00 | 43 | 1008.4 |
| 20260504232318 | 23 | 279 | 3.2 | 20.9 | 0.00 | 0.00 | 0.00 | 44 | 1008.3 |
| 20260504231403 | 23 | 277 | 1.6 | 17.7 | 0.00 | 0.00 | 0.00 | 44 | 1008.2 |
| 20260504230703 | 23 | 267 | 1.6 | 17.7 | 0.00 | 0.00 | 0.00 | 43 | 1008.1 |
| 20260504230003 | 23 | 265 | 3.2 | 16.1 | 0.00 | 0.00 | 0.00 | 42 | 1008.1 |
| 20260504225817 | 23 | 267 | 3.2 | 16.1 | 0.00 | 0.00 | 0.00 | 42 | 1008.1 |
| 20260504224903 | 23 | 261 | 4.8 | 11.3 | 0.00 | 0.00 | 0.00 | 43 | 1008.0 |
| 20260504224203 | 23 | 268 | 4.8 | 17.7 | 0.00 | 0.00 | 0.00 | 42 | 1008.1 |
| 20260504223503 | 23 | 276 | 4.8 | 20.9 | 0.00 | 0.00 | 0.00 | 43 | 1008.1 |
| 20260504222803 | 23 | 269 | 4.8 | 20.9 | 0.00 | 0.00 | 0.00 | 42 | 1008.1 |
| 20260504222103 | 23 | 271 | 11.3 | 19.3 | 0.00 | 0.00 | 0.00 | 43 | 1008.2 |
| 20260504221403 | 23 | 268 | 16.1 | 19.3 | 0.00 | 0.00 | 0.00 | 42 | 1008.1 |
| 20260504220703 | 24 | 248 | 4.8 | 19.3 | 0.00 | 0.00 | 0.00 | 42 | 1008.0 |
| 20260504220004 | 25 | 261 | 3.2 | 19.3 | 0.00 | 0.00 | 0.00 | 40 | 1007.8 |
| 20260504215603 | 25 | 269 | 3.2 | 12.9 | 0.00 | 0.00 | 0.00 | 39 | 1007.8 |
| 20260504214904 | 24 | 254 | 4.8 | 12.9 | 0.00 | 0.00 | 0.00 | 40 | 1007.9 |
| 20260504214419 | 24 | 255 | 3.2 | 12.9 | 0.00 | 0.00 | 0.00 | 40 | 1007.9 |
| 20260504213503 | 24 | 265 | 6.4 | 12.9 | 0.00 | 0.00 | 0.00 | 40 | 1007.8 |
| 20260504213017 | 24 | 261 | 3.2 | 32.2 | 0.00 | 0.00 | 0.00 | 40 | 1007.9 |
| 20260504212317 | 24 | 262 | 6.4 | 12.9 | 0.00 | 0.00 | 0.00 | 39 | 1007.8 |
| 20260504211403 | 23 | 265 | 3.2 | 22.5 | 0.00 | 0.00 | 0.00 | 41 | 1008.1 |
| 20260504210703 | 23 | 279 | 6.4 | 12.9 | 0.00 | 0.00 | 0.00 | 40 | 1008.2 |
| 20260504210218 | 24 | 262 | 11.3 | 24.1 | 0.00 | 0.00 | 0.00 | 39 | 1008.1 |
| 20260504205818 | 23 | 267 | 3.2 | 24.1 | 0.00 | 0.00 | 0.00 | 40 | 1008.3 |
| 20260504204904 | 24 | 267 | 14.5 | 19.3 | 0.00 | 0.00 | 0.00 | 39 | 1008.3 |
| 20260504204203 | 24 | 256 | 0.0 | 19.3 | 0.00 | 0.00 | 0.00 | 39 | 1008.4 |
| 20260504203503 | 23 | 174 | 4.8 | 12.9 | 0.00 | 0.00 | 0.00 | 40 | 1008.6 |
| 20260504202803 | 23 | 194 | 6.4 | 16.1 | 0.00 | 0.00 | 0.00 | 40 | 1008.5 |
| 20260504202103 | 23 | 259 | 3.2 | 17.7 | 0.00 | 0.00 | 0.00 | 42 | 1008.7 |
| 20260504201403 | 23 | 283 | 3.2 | 30.6 | 0.00 | 0.00 | 0.00 | 43 | 1008.9 |
| 20260504200703 | 23 | 271 | 4.8 | 30.6 | 0.00 | 0.00 | 0.00 | 43 | 1008.9 |
| 20260504200004 | 23 | 271 | 8.0 | 19.3 | 0.00 | 0.00 | 0.00 | 42 | 1009.0 |
| 20260504195603 | 23 | 273 | 3.2 | 19.3 | 0.00 | 0.00 | 0.00 | 42 | 1009.1 |
| 20260504194903 | 23 | 263 | 6.4 | 20.9 | 0.00 | 0.00 | 0.00 | 43 | 1009.2 |
| 20260504194203 | 23 | 250 | 3.2 | 20.9 | 0.00 | 0.00 | 0.00 | 42 | 1009.2 |
| 20260504193503 | 23 | 236 | 3.2 | 17.7 | 0.00 | 0.00 | 0.00 | 40 | 1009.3 |
| 20260504192803 | 23 | 251 | 3.2 | 17.7 | 0.00 | 0.00 | 0.00 | 43 | 1009.5 |
| 20260504192317 | 22 | 260 | 1.6 | 12.9 | 0.00 | 0.00 | 0.00 | 44 | 1009.7 |
| 20260504191403 | 22 | 269 | 3.2 | 24.1 | 0.00 | 0.00 | 0.00 | 44 | 1010.0 |
| 20260504190703 | 22 | 269 | 1.6 | 17.7 | 0.00 | 0.00 | 0.00 | 44 | 1010.1 |
| 20260504190004 | 23 | 227 | 6.4 | 11.3 | 0.00 | 0.00 | 0.00 | 43 | 1010.1 |
| 20260504185817 | 22 | 241 | 1.6 | 12.9 | 0.00 | 0.00 | 0.00 | 45 | 1010.2 |
| 20260504184903 | 22 | 275 | 8.0 | 16.1 | 0.00 | 0.00 | 0.00 | 46 | 1010.4 |
| 20260504184203 | 22 | 253 | 3.2 | 12.9 | 0.00 | 0.00 | 0.00 | 47 | 1010.5 |
| 20260504183503 | 22 | 169 | 4.8 | 9.7 | 0.00 | 0.00 | 0.00 | 45 | 1010.5 |
| 20260504182803 | 22 | 269 | 3.2 | 17.7 | 0.00 | 0.00 | 0.00 | 45 | 1010.7 |
| 20260504182103 | 22 | 205 | 4.8 | 17.7 | 0.00 | 0.00 | 0.00 | 45 | 1010.8 |
| 20260504181403 | 22 | 242 | 12.9 | 12.9 | 0.00 | 0.00 | 0.00 | 46 | 1010.8 |
| 20260504180703 | 22 | 169 | 1.6 | 11.3 | 0.00 | 0.00 | 0.00 | 45 | 1010.9 |
| 20260504180004 | 21 | 210 | 11.3 | 17.7 | 0.00 | 0.00 | 0.00 | 46 | 1011.1 |
| 20260504175603 | 21 | 174 | 1.6 | 17.7 | 0.00 | 0.00 | 0.00 | 45 | 1011.1 |
| 20260504174903 | 20 | 157 | 1.6 | 14.5 | 0.00 | 0.00 | 0.00 | 49 | 1011.5 |
| 20260504174203 | 20 | 132 | 12.9 | 20.9 | 0.00 | 0.00 | 0.00 | 49 | 1011.6 |
| 20260504173503 | 21 | 143 | 9.7 | 16.1 | 0.00 | 0.00 | 0.00 | 47 | 1011.7 |
| 20260504172803 | 20 | 163 | 4.8 | 16.1 | 0.00 | 0.00 | 0.00 | 46 | 1011.6 |
| 20260504172318 | 20 | 161 | 4.8 | 14.5 | 0.00 | 0.00 | 0.00 | 47 | 1011.6 |
| 20260504171403 | 20 | 213 | 4.8 | 16.1 | 0.00 | 0.00 | 0.00 | 47 | 1011.8 |
| 20260504170703 | 20 | 219 | 11.3 | 16.1 | 0.00 | 0.00 | 0.00 | 48 | 1011.9 |
| 20260504150703 | 16 | 323 | 8.0 | 12.9 | 0.00 | 0.00 | 0.00 | 50 | 1014.5 |
| 20260504140703 | 14 | 322 | 4.8 | 6.4 | 0.00 | 0.00 | 0.00 | 58 | 1015.3 |
| 20260504130704 | 12 | 340 | 3.2 | 4.8 | 0.00 | 0.00 | 0.00 | 59 | 1014.9 |
| 20260504130219 | 12 | 358 | 1.6 | 3.2 | 0.00 | 0.00 | 0.00 | 60 | 1014.7 |
| 20260504110703 | 8 | 32 | 0.0 | 6.4 | 0.00 | 0.00 | 0.00 | 72 | 1015.1 |
| 20260504081403 | 6 | 71 | 1.6 | 3.2 | 0.00 | 0.00 | 0.00 | 78 | 1016.0 |
| 20260504080703 | 6 | 35 | 0.0 | 3.2 | 0.00 | 0.00 | 0.00 | 79 | 1016.3 |
| 20260504050703 | 8 | 35 | 0.0 | 3.2 | 0.00 | 0.00 | 0.00 | 68 | 1015.8 |
| 20260504050218 | 8 | 25 | 1.6 | 4.8 | 0.00 | 0.00 | 0.00 | 67 | 1015.7 |
| 20260504045603 | 8 | 11 | 0.0 | 4.8 | 0.00 | 0.00 | 0.00 | 66 | 1015.7 |
| 20260504045118 | 8 | 14 | 1.6 | 4.8 | 0.00 | 0.00 | 0.00 | 66 | 1015.6 |
| 20260504044204 | 9 | 32 | 1.6 | 3.2 | 0.00 | 0.00 | 0.00 | 65 | 1015.6 |
| 20260504043504 | 9 | 24 | 3.2 | 4.8 | 0.00 | 0.00 | 0.00 | 62 | 1015.4 |
| 20260504042804 | 9 | 28 | 3.2 | 4.8 | 0.00 | 0.00 | 0.00 | 62 | 1015.4 |
| 20260504042104 | 9 | 27 | 3.2 | 4.8 | 0.00 | 0.00 | 0.00 | 62 | 1015.3 |
| 20260504041403 | 10 | 35 | 3.2 | 4.8 | 0.00 | 0.00 | 0.00 | 62 | 1015.2 |
| 20260504040703 | 10 | 38 | 0.0 | 4.8 | 0.00 | 0.00 | 0.00 | 59 | 1015.1 |
| 20260504040220 | 10 | 36 | 3.2 | 3.2 | 0.00 | 0.00 | 0.00 | 58 | 1015.1 |
| 20260504035604 | 10 | 21 | 3.2 | 4.8 | 0.00 | 0.00 | 0.00 | 56 | 1015.1 |